Time;durP1;ratioP1;P1;durP2;ratioP2;P2;SDS_P1;SDS_P2;PMS_P1;PMS_P2;Temp;Humidity;BMP_temperature;BMP_pressure;BME280_temperature;BME280_humidity;BME280_pressure;Samples;Min_cycle;Max_cycle;Signal;HPM_P1;HPM_P2
2021/06/30 00:02:27;;;;;;;0.60;0.50;;;;;;;16.56;80.26;98425.72;5148571;27;20549;-77
2021/06/30 00:05:11;;;;;;;0.40;0.40;;;;;;;16.53;80.16;98426.84;5106506;28;20553;-77
2021/06/30 00:07:52;;;;;;;0.47;0.47;;;;;;;16.52;80.46;98430.50;5127743;27;20571;-77
2021/06/30 00:10:34;;;;;;;0.40;0.40;;;;;;;16.49;80.25;98428.13;5190650;27;21016;-77
2021/06/30 00:13:15;;;;;;;0.63;0.57;;;;;;;16.46;80.12;98442.59;5107023;28;20549;-77
2021/06/30 00:15:57;;;;;;;0.40;0.40;;;;;;;16.42;80.30;98440.38;5107381;28;20554;-78
2021/06/30 00:18:41;;;;;;;0.40;0.40;;;;;;;16.53;80.39;98449.06;5107304;28;21105;-77
2021/06/30 00:21:23;;;;;;;0.60;0.60;;;;;;;16.61;79.95;98461.72;5107276;28;20560;-77
2021/06/30 00:24:06;;;;;;;0.33;0.33;;;;;;;16.69;79.80;98453.84;5107311;28;20552;-77
2021/06/30 00:26:49;;;;;;;0.60;0.60;;;;;;;16.74;79.36;98445.41;5107622;28;20528;-77
2021/06/30 00:29:31;;;;;;;0.43;0.43;;;;;;;16.72;79.79;98442.03;5106569;28;20556;-78
2021/06/30 00:32:14;;;;;;;1.20;1.10;;;;;;;16.69;79.44;98440.47;5107166;28;20568;-76
2021/06/30 00:34:57;;;;;;;0.87;0.40;;;;;;;16.65;79.62;98447.13;5106818;28;21093;-77
2021/06/30 00:38:22;;;;;;;0.53;0.53;;;;;;;16.58;79.74;98445.94;5147444;27;20546;-77
2021/06/30 00:41:05;;;;;;;0.40;0.40;;;;;;;16.45;79.80;98437.41;5107038;28;21046;-78
2021/06/30 00:43:47;;;;;;;0.60;0.60;;;;;;;16.50;80.32;98453.84;5168943;27;20553;-77
2021/06/30 00:46:31;;;;;;;0.60;0.50;;;;;;;16.46;81.04;98450.63;5107214;28;20540;-77
2021/06/30 00:49:14;;;;;;;0.90;0.70;;;;;;;16.46;80.65;98460.47;5148595;27;21055;-78
2021/06/30 00:51:56;;;;;;;0.57;0.40;;;;;;;16.54;80.53;98465.97;5107398;28;20544;-77
2021/06/30 00:54:37;;;;;;;0.60;0.60;;;;;;;16.63;80.37;98464.28;5188951;27;1329260;-77
2021/06/30 00:57:19;;;;;;;0.53;0.53;;;;;;;16.65;80.90;98454.28;5107177;28;20552;-77
2021/06/30 01:00:00;;;;;;;0.70;0.50;;;;;;;16.62;80.39;98447.41;5169648;27;20548;-77
2021/06/30 01:02:42;;;;;;;0.70;0.47;;;;;;;16.55;80.87;98438.25;5107941;28;20553;-78
2021/06/30 01:05:24;;;;;;;0.80;0.77;;;;;;;16.48;80.69;98434.44;5107546;28;20552;-77
2021/06/30 01:08:08;;;;;;;0.40;0.40;;;;;;;16.41;80.67;98428.00;5107517;28;20548;-77
2021/06/30 01:10:50;;;;;;;1.33;1.23;;;;;;;16.36;80.49;98430.25;5148769;27;20549;-77
2021/06/30 01:13:33;;;;;;;0.50;0.50;;;;;;;16.30;80.49;98429.00;5107590;28;21110;-77
2021/06/30 01:16:16;;;;;;;0.70;0.47;;;;;;;16.26;80.50;98437.44;5107255;28;20551;-77
2021/06/30 01:18:59;;;;;;;0.40;0.40;;;;;;;16.23;80.65;98435.03;5107287;28;20562;-77
2021/06/30 01:21:42;;;;;;;0.43;0.43;;;;;;;16.17;80.50;98437.31;5106541;28;20554;-77
2021/06/30 01:24:24;;;;;;;0.50;0.50;;;;;;;16.04;80.33;98412.69;5107356;28;20552;-78
2021/06/30 01:27:06;;;;;;;0.30;0.30;;;;;;;16.10;80.63;98435.31;5107346;28;21350;-78
2021/06/30 01:29:47;;;;;;;0.73;0.73;;;;;;;16.06;80.72;98429.44;5106424;28;20560;-77
2021/06/30 01:32:29;;;;;;;0.40;0.40;;;;;;;16.04;80.54;98436.75;5107205;28;20573;-78
2021/06/30 01:35:19;;;;;;;0.57;0.57;;;;;;;16.02;80.99;98428.03;5106032;28;21027;-77
2021/06/30 01:38:03;;;;;;;0.40;0.40;;;;;;;16.01;81.14;98437.00;5107053;28;20563;-77
2021/06/30 01:40:44;;;;;;;0.83;0.60;;;;;;;16.00;81.49;98445.16;5107797;28;20563;-76
2021/06/30 01:43:26;;;;;;;0.50;0.50;;;;;;;15.97;81.39;98451.63;5107287;28;20560;-77
2021/06/30 01:46:07;;;;;;;0.77;0.77;;;;;;;15.95;81.72;98458.91;5106318;28;21079;-77
2021/06/30 01:48:49;;;;;;;0.50;0.40;;;;;;;15.83;81.70;98433.31;5128384;27;21018;-77
2021/06/30 01:51:33;;;;;;;0.40;0.40;;;;;;;15.93;81.61;98444.88;5107459;28;20533;-76
2021/06/30 01:54:16;;;;;;;0.50;0.50;;;;;;;15.90;81.74;98445.16;5127315;27;20961;-77
2021/06/30 01:56:58;;;;;;;0.70;0.70;;;;;;;15.92;81.78;98453.03;5128420;27;20916;-77
2021/06/30 01:59:41;;;;;;;0.90;0.63;;;;;;;15.90;81.79;98447.84;5107503;28;20555;-77
2021/06/30 02:02:25;;;;;;;0.83;0.60;;;;;;;15.89;81.35;98445.28;5107253;28;21021;-77
2021/06/30 02:05:13;;;;;;;0.50;0.50;;;;;;;15.87;81.64;98449.94;5107226;28;20568;-77
2021/06/30 02:07:58;;;;;;;0.43;0.43;;;;;;;15.83;81.17;98446.69;5107064;28;20571;-77
2021/06/30 02:10:40;;;;;;;0.70;0.70;;;;;;;15.80;81.48;98452.31;5107206;28;20568;-77
2021/06/30 02:13:23;;;;;;;0.30;0.30;;;;;;;15.79;81.30;98445.28;5106361;28;21029;-77
2021/06/30 02:16:06;;;;;;;0.90;0.90;;;;;;;15.79;81.32;98445.28;5115861;27;20546;-77
2021/06/30 02:18:47;;;;;;;1.13;0.80;;;;;;;15.78;81.48;98447.13;5125956;27;20567;-77
2021/06/30 02:21:29;;;;;;;0.57;0.57;;;;;;;15.77;81.25;98439.25;5108047;28;20552;-77
2021/06/30 02:24:11;;;;;;;0.60;0.60;;;;;;;15.75;81.22;98433.19;5168403;27;20574;-77
2021/06/30 02:26:53;;;;;;;0.60;0.40;;;;;;;15.72;81.18;98430.78;5107081;28;20568;-77
2021/06/30 02:29:36;;;;;;;0.40;0.40;;;;;;;15.70;81.23;98425.59;5107365;28;20564;-77
2021/06/30 02:33:02;;;;;;;0.50;0.50;;;;;;;15.64;80.95;98433.31;5148477;27;20545;-77
2021/06/30 02:35:45;;;;;;;1.20;0.70;;;;;;;15.61;80.89;98438.91;5106836;28;21065;-78
2021/06/30 02:38:27;;;;;;;0.80;0.60;;;;;;;15.64;81.15;98441.31;5189225;27;1291692;-77
2021/06/30 02:41:10;;;;;;;1.93;1.03;;;;;;;15.61;81.51;98444.25;5107086;28;20540;-77
2021/06/30 02:43:53;;;;;;;0.60;0.60;;;;;;;15.51;81.51;98419.34;5107690;28;20919;-77
2021/06/30 02:46:35;;;;;;;0.30;0.30;;;;;;;15.52;81.48;98423.72;5107344;28;20560;-77
2021/06/30 02:49:17;;;;;;;1.00;1.00;;;;;;;15.56;81.81;98442.03;5127133;27;20652;-77
2021/06/30 02:52:00;;;;;;;1.03;0.63;;;;;;;15.58;81.98;98444.56;5107193;28;20560;-77
2021/06/30 02:54:41;;;;;;;0.80;0.80;;;;;;;15.59;82.28;98452.41;5189204;27;1313519;-77
2021/06/30 02:57:25;;;;;;;0.70;0.70;;;;;;;15.50;82.13;98442.53;5106809;28;21078;-77
2021/06/30 03:00:11;;;;;;;0.53;0.50;;;;;;;15.57;82.12;98449.06;5107278;28;20556;-77
2021/06/30 03:02:53;;;;;;;0.80;0.73;;;;;;;15.62;81.90;98456.63;5107882;28;20563;-77
2021/06/30 03:05:36;;;;;;;0.50;0.50;;;;;;;15.63;81.54;98458.31;5107256;28;20552;-77
2021/06/30 03:08:17;;;;;;;0.93;0.77;;;;;;;15.65;82.04;98461.69;5107099;28;20592;-77
2021/06/30 03:10:59;;;;;;;0.70;0.70;;;;;;;15.54;82.03;98440.44;5107068;28;21018;-77
2021/06/30 03:13:39;;;;;;;0.80;0.70;;;;;;;15.62;81.90;98456.63;5180474;27;1554634;-80
2021/06/30 03:16:21;;;;;;;0.40;0.40;;;;;;;15.66;81.74;98463.38;5106882;28;20556;-76
2021/06/30 03:19:03;;;;;;;0.40;0.40;;;;;;;15.55;82.49;98450.16;5107126;28;20556;-77
2021/06/30 03:21:45;;;;;;;0.70;0.70;;;;;;;15.66;82.16;98463.38;5107497;28;20560;-76
2021/06/30 03:24:27;;;;;;;0.77;0.77;;;;;;;15.62;82.36;98456.63;5107255;28;20561;-77
2021/06/30 03:27:10;;;;;;;0.57;0.57;;;;;;;15.68;82.19;98458.75;5106847;28;21012;-77
2021/06/30 03:29:53;;;;;;;0.87;0.87;;;;;;;15.70;81.97;98459.47;5107149;28;20564;-77
2021/06/30 03:32:36;;;;;;;0.57;0.57;;;;;;;15.75;82.09;98462.56;5107626;28;20568;-76
2021/06/30 03:35:18;;;;;;;0.80;0.80;;;;;;;15.80;81.68;98463.00;5107266;28;20563;-77
2021/06/30 03:37:59;;;;;;;0.50;0.50;;;;;;;15.84;81.52;98452.88;5107996;28;20552;-77
2021/06/30 03:40:41;;;;;;;0.50;0.40;;;;;;;15.93;81.76;98457.41;5169793;27;20590;-77
2021/06/30 03:43:23;;;;;;;0.50;0.40;;;;;;;15.88;81.30;98441.78;5107363;28;20568;-77
2021/06/30 03:46:09;;;;;;;0.47;0.47;;;;;;;16.00;81.32;98456.69;5148115;27;20568;-77
2021/06/30 03:48:50;;;;;;;0.40;0.40;;;;;;;16.07;81.58;98479.19;5107217;28;20562;-77
2021/06/30 03:51:32;;;;;;;0.47;0.40;;;;;;;16.14;81.10;98474.13;5106437;28;20566;-77
2021/06/30 03:54:15;;;;;;;0.40;0.40;;;;;;;16.16;81.15;98473.00;5168760;27;20556;-76
2021/06/30 03:56:57;;;;;;;0.50;0.50;;;;;;;16.17;81.22;98469.38;5106874;28;20584;-77
2021/06/30 03:59:37;;;;;;;0.47;0.47;;;;;;;16.34;80.93;98482.97;5182197;27;1490296;-76
2021/06/30 04:02:19;;;;;;;0.57;0.57;;;;;;;16.43;80.89;98482.16;5107522;28;20556;-77
2021/06/30 04:05:02;;;;;;;0.90;0.90;;;;;;;16.49;80.67;98485.09;5106708;28;20564;-77
2021/06/30 04:07:45;;;;;;;0.90;0.80;;;;;;;16.51;80.21;98460.91;5106749;28;20556;-77
2021/06/30 04:10:29;;;;;;;0.83;0.57;;;;;;;16.46;80.28;98447.09;5107239;28;21058;-77
2021/06/30 04:13:11;;;;;;;0.50;0.50;;;;;;;16.62;80.37;98473.25;5106691;28;20563;-77
2021/06/30 04:15:54;;;;;;;0.50;0.50;;;;;;;16.63;80.44;98478.50;5148381;27;20552;-77
2021/06/30 04:18:36;;;;;;;0.50;0.50;;;;;;;16.62;80.02;98468.78;5107242;28;21060;-77
2021/06/30 04:21:19;;;;;;;0.30;0.30;;;;;;;16.72;80.16;98472.28;5106959;28;20570;-77
2021/06/30 04:24:02;;;;;;;0.60;0.60;;;;;;;16.82;80.07;98470.41;5106803;28;20551;-76
2021/06/30 04:26:59;;;;;;;0.50;0.50;;;;;;;17.03;79.63;98461.38;5148684;27;20918;-76
2021/06/30 04:29:41;;;;;;;0.53;0.53;;;;;;;17.20;79.71;98463.25;5107224;28;20556;-77
2021/06/30 04:32:24;;;;;;;0.33;0.33;;;;;;;17.39;79.09;98465.03;5107250;28;20548;-77
2021/06/30 04:35:09;;;;;;;0.43;0.43;;;;;;;17.57;78.95;98472.09;5107486;28;20558;-77
2021/06/30 04:37:51;;;;;;;0.50;0.50;;;;;;;17.68;78.75;98472.94;5181505;27;20560;-77
2021/06/30 04:40:32;;;;;;;0.60;0.60;;;;;;;17.70;78.02;98465.59;5106950;28;20559;-77
2021/06/30 04:43:14;;;;;;;0.93;0.80;;;;;;;17.78;78.33;98484.44;5169778;27;20562;-78
2021/06/30 04:45:58;;;;;;;0.73;0.73;;;;;;;17.79;77.67;98480.78;5106496;28;20560;-76
2021/06/30 04:48:39;;;;;;;0.47;0.47;;;;;;;17.85;77.74;98480.16;5181267;27;1516283;-77
2021/06/30 04:51:23;;;;;;;0.63;0.63;;;;;;;17.85;78.00;98485.50;5106422;28;20556;-77
2021/06/30 04:54:07;;;;;;;0.50;0.50;;;;;;;17.87;77.58;98488.88;5106802;28;20556;-78
2021/06/30 04:56:50;;;;;;;0.70;0.70;;;;;;;17.91;77.71;98490.28;5106639;28;20558;-76
2021/06/30 04:59:32;;;;;;;0.80;0.80;;;;;;;18.04;77.25;98506.84;5107139;28;20560;-77
2021/06/30 05:02:16;;;;;;;0.70;0.63;;;;;;;18.10;77.30;98505.38;5106695;28;20544;-76
2021/06/30 05:04:59;;;;;;;0.67;0.67;;;;;;;18.17;77.09;98512.69;5107091;28;20556;-77
2021/06/30 05:07:42;;;;;;;0.70;0.70;;;;;;;18.21;76.84;98502.47;5086745;28;20566;-77
2021/06/30 05:10:25;;;;;;;0.50;0.50;;;;;;;18.28;76.84;98504.41;5107668;28;20556;-77
2021/06/30 05:13:08;;;;;;;0.73;0.73;;;;;;;18.38;76.72;98503.47;5127721;27;20562;-77
2021/06/30 05:15:50;;;;;;;0.60;0.60;;;;;;;18.46;76.76;98495.50;5149179;27;20563;-76
2021/06/30 05:18:32;;;;;;;0.77;0.77;;;;;;;18.60;76.19;98503.03;5169285;27;20562;-77
2021/06/30 05:21:15;;;;;;;0.60;0.60;;;;;;;18.61;75.82;98496.66;5106981;28;20556;-76
2021/06/30 05:23:57;;;;;;;0.87;0.87;;;;;;;18.68;75.56;98511.13;5107207;28;21114;-77
2021/06/30 05:26:38;;;;;;;0.83;0.83;;;;;;;18.57;76.08;98504.16;5175411;27;1541598;-78
2021/06/30 05:29:21;;;;;;;0.73;0.73;;;;;;;18.49;76.16;98484.47;5106052;28;21016;-77
2021/06/30 05:32:05;;;;;;;0.50;0.50;;;;;;;18.62;76.27;98501.03;5106979;28;21060;-77
2021/06/30 05:34:48;;;;;;;0.57;0.57;;;;;;;18.73;76.22;98499.94;5086504;28;20562;-77
2021/06/30 05:37:29;;;;;;;0.83;0.83;;;;;;;18.83;75.95;98493.47;5105870;28;21094;-77
2021/06/30 05:40:12;;;;;;;0.70;0.70;;;;;;;18.91;75.36;98490.88;5107267;28;20556;-77
2021/06/30 05:42:55;;;;;;;0.60;0.60;;;;;;;19.01;75.68;98490.78;5126883;27;20570;-77
2021/06/30 05:45:37;;;;;;;0.97;0.97;;;;;;;19.17;75.13;98481.94;5127518;27;20578;-76
2021/06/30 05:48:21;;;;;;;1.10;1.00;;;;;;;19.30;74.83;98479.69;5106581;28;20571;-76
2021/06/30 05:51:03;;;;;;;0.80;0.80;;;;;;;19.37;73.99;98486.94;5106631;28;20598;-76
2021/06/30 05:53:45;;;;;;;0.73;0.67;;;;;;;19.34;73.72;98481.03;5106158;28;20575;-75
2021/06/30 05:56:28;;;;;;;0.50;0.50;;;;;;;19.25;73.69;98479.34;5104034;28;20556;-76
2021/06/30 05:59:10;;;;;;;0.70;0.70;;;;;;;19.24;73.57;98491.06;5147585;27;20976;-77
2021/06/30 06:01:52;;;;;;;0.97;0.87;;;;;;;19.11;74.03;98479.91;5106496;28;21081;-76
2021/06/30 06:04:36;;;;;;;0.57;0.57;;;;;;;19.00;74.05;98473.81;5107850;28;21291;-77
2021/06/30 06:07:19;;;;;;;0.67;0.67;;;;;;;18.98;73.94;98486.56;5170824;27;20597;-76
2021/06/30 06:10:01;;;;;;;0.90;0.80;;;;;;;18.95;73.91;98494.06;5129890;27;20563;-76
2021/06/30 06:12:44;;;;;;;0.90;0.80;;;;;;;18.98;73.72;98486.56;5107265;28;21012;-77
2021/06/30 06:15:28;;;;;;;1.00;1.00;;;;;;;18.97;73.90;98490.25;5107929;28;20563;-75
2021/06/30 06:18:10;;;;;;;0.83;0.83;;;;;;;18.93;74.02;98486.16;5145127;27;21058;-79
2021/06/30 06:20:53;;;;;;;0.70;0.70;;;;;;;18.89;73.92;98487.50;5106015;28;20560;-78
2021/06/30 06:23:42;;;;;;;0.57;0.57;;;;;;;18.82;73.79;98485.59;5167987;27;20559;-76
2021/06/30 06:26:26;;;;;;;0.70;0.70;;;;;;;18.86;74.42;98487.81;5105317;28;20564;-77
2021/06/30 06:29:10;;;;;;;0.80;0.80;;;;;;;18.70;74.08;98471.59;5115980;27;20551;-77
2021/06/30 06:31:54;;;;;;;0.70;0.70;;;;;;;18.76;73.78;98499.66;5105983;28;20558;-77
2021/06/30 06:34:38;;;;;;;0.70;0.70;;;;;;;18.70;73.80;98503.78;5106012;27;20570;-76
2021/06/30 06:37:21;;;;;;;0.63;0.63;;;;;;;18.64;73.87;98488.31;5106670;28;20540;-76
2021/06/30 06:40:05;;;;;;;0.70;0.70;;;;;;;18.56;73.53;98488.19;5107159;28;20568;-77
2021/06/30 06:42:49;;;;;;;0.63;0.63;;;;;;;18.54;73.58;98471.44;5106492;28;20564;-77
2021/06/30 06:45:31;;;;;;;0.60;0.60;;;;;;;18.74;73.04;98507.84;5106686;28;20551;-79
2021/06/30 06:48:15;;;;;;;0.83;0.60;;;;;;;18.74;73.53;98513.22;5105502;28;20580;-82
2021/06/30 06:50:58;;;;;;;0.50;0.50;;;;;;;18.73;72.76;98508.00;5105986;28;20561;-83
2021/06/30 06:53:38;;;;;;;0.30;0.30;;;;;;;18.64;72.82;98494.53;5181544;27;1521889;-82
2021/06/30 06:56:26;;;;;;;0.50;0.50;;;;;;;18.78;72.76;98511.91;5127003;27;21052;-80
2021/06/30 06:59:08;;;;;;;0.40;0.40;;;;;;;18.85;72.67;98509.44;5107358;28;20561;-82
2021/06/30 07:01:51;;;;;;;0.50;0.50;;;;;;;18.90;72.59;98515.19;5169514;27;20547;-78
2021/06/30 07:04:33;;;;;;;0.67;0.60;;;;;;;18.93;72.45;98510.31;5148062;27;20560;-78
2021/06/30 07:07:18;;;;;;;0.57;0.47;;;;;;;18.95;72.32;98519.06;5106029;28;20563;-79
2021/06/30 07:10:01;;;;;;;0.60;0.60;;;;;;;18.88;72.38;98496.56;5087593;28;20584;-80
2021/06/30 07:12:42;;;;;;;0.40;0.40;;;;;;;19.00;71.72;98522.13;5165758;27;1539359;-79
2021/06/30 07:15:24;;;;;;;0.47;0.47;;;;;;;18.98;71.62;98512.53;5189312;27;20612;-77
2021/06/30 07:18:14;;;;;;;0.40;0.40;;;;;;;19.03;71.67;98518.31;5098180;27;20567;-78
2021/06/30 07:20:56;;;;;;;0.60;0.60;;;;;;;19.05;71.67;98516.28;5106320;28;20562;-80
2021/06/30 07:23:40;;;;;;;0.40;0.40;;;;;;;18.98;71.71;98497.28;5147865;27;20540;-77
2021/06/30 07:26:23;;;;;;;0.53;0.53;;;;;;;19.16;71.12;98509.81;5106012;28;21093;-81
2021/06/30 07:29:09;;;;;;;0.40;0.40;;;;;;;19.47;70.48;98513.69;5168150;27;20546;-78
2021/06/30 07:31:55;;;;;;;0.47;0.47;;;;;;;19.69;69.77;98514.97;5106039;28;20564;-79
2021/06/30 07:34:39;;;;;;;0.37;0.37;;;;;;;19.95;68.89;98513.06;5107054;28;20568;-80
2021/06/30 07:37:21;;;;;;;0.40;0.40;;;;;;;19.93;68.26;98476.59;5148429;27;20556;-78
2021/06/30 07:40:05;;;;;;;0.40;0.40;;;;;;;20.42;67.01;98505.28;5106610;28;20574;-79
2021/06/30 07:42:47;;;;;;;0.30;0.30;;;;;;;20.99;65.98;98520.59;5106601;28;21108;-80
2021/06/30 07:45:29;;;;;;;0.60;0.60;;;;;;;21.57;63.92;98504.16;5190326;27;1271736;-81
2021/06/30 07:48:11;;;;;;;0.40;0.40;;;;;;;22.65;62.03;98512.34;5106799;28;20556;-80
2021/06/30 07:50:53;;;;;;;0.40;0.40;;;;;;;23.58;59.20;98537.19;5168637;27;21006;-79
2021/06/30 07:53:37;;;;;;;0.40;0.40;;;;;;;24.22;56.47;98529.28;5148585;27;20571;-79
2021/06/30 07:56:33;;;;;;;0.40;0.40;;;;;;;24.38;56.35;98539.88;5105199;28;20567;-77
2021/06/30 07:59:16;;;;;;;0.47;0.47;;;;;;;25.42;54.67;98543.78;5106073;28;21059;-77
2021/06/30 08:01:58;;;;;;;0.57;0.30;;;;;;;26.00;53.06;98547.91;5105913;28;20568;-76
2021/06/30 08:04:40;;;;;;;0.40;0.40;;;;;;;26.41;51.20;98555.22;5106961;28;20571;-79
2021/06/30 08:07:24;;;;;;;0.30;0.30;;;;;;;27.07;48.79;98563.53;5105672;28;21311;-79
2021/06/30 08:10:09;;;;;;;0.30;0.30;;;;;;;26.81;47.92;98567.84;5106991;28;20559;-80
2021/06/30 08:12:52;;;;;;;0.50;0.50;;;;;;;26.37;48.47;98562.09;5118361;27;20546;-79
2021/06/30 08:15:34;;;;;;;0.20;0.20;;;;;;;25.93;49.54;98557.91;5096529;28;21376;-79
2021/06/30 08:18:17;;;;;;;0.30;0.30;;;;;;;25.76;49.68;98551.97;5106746;28;21085;-79
2021/06/30 08:21:00;;;;;;;0.30;0.30;;;;;;;25.67;48.86;98563.19;5105769;28;20572;-78
2021/06/30 08:23:44;;;;;;;0.27;0.27;;;;;;;25.51;49.13;98552.59;5106706;28;20566;-79
2021/06/30 08:26:27;;;;;;;0.40;0.40;;;;;;;25.53;49.78;98539.69;5106264;28;20568;-80
2021/06/30 08:29:09;;;;;;;0.40;0.40;;;;;;;25.52;50.18;98538.84;5086634;28;20574;-80
2021/06/30 08:31:53;;;;;;;0.30;0.30;;;;;;;25.35;50.93;98543.72;5106742;28;20568;-79
2021/06/30 08:34:36;;;;;;;0.30;0.30;;;;;;;25.57;49.87;98546.41;5107685;28;20571;-84
2021/06/30 08:37:21;;;;;;;0.43;0.40;;;;;;;26.95;47.67;98559.75;5106314;28;20564;-80
2021/06/30 08:40:03;;;;;;;0.30;0.30;;;;;;;27.51;45.19;98574.59;5106166;28;21032;-80
2021/06/30 08:42:46;;;;;;;0.40;0.40;;;;;;;27.44;45.24;98570.22;5106859;28;20556;-81
2021/06/30 08:45:30;;;;;;;0.30;0.30;;;;;;;28.04;44.35;98571.78;5116792;27;20562;-78
2021/06/30 08:48:29;;;;;;;0.20;0.20;;;;;;;28.48;42.66;98579.19;5147882;27;20557;-78
2021/06/30 08:51:13;;;;;;;0.40;0.40;;;;;;;28.06;43.72;98572.44;5147512;27;20561;-78
2021/06/30 08:53:57;;;;;;;0.60;0.60;;;;;;;27.60;44.33;98575.22;5106830;28;20560;-78
2021/06/30 08:56:39;;;;;;;0.20;0.20;;;;;;;26.80;45.69;98565.34;5172070;27;1533183;-77
2021/06/30 08:59:22;;;;;;;0.30;0.30;;;;;;;26.09;47.57;98552.13;5105826;28;20576;-79
2021/06/30 09:02:04;;;;;;;0.30;0.30;;;;;;;25.53;48.38;98545.97;5155091;27;20562;-78
2021/06/30 09:04:47;;;;;;;0.30;0.30;;;;;;;24.96;49.26;98543.44;5096872;28;20552;-84
2021/06/30 09:07:31;;;;;;;0.30;0.30;;;;;;;24.53;49.52;98547.97;5168738;27;21057;-84
2021/06/30 09:10:33;;;;;;;0.30;0.30;;;;;;;25.42;47.81;98550.06;5168180;27;20556;-84
2021/06/30 09:13:26;;;;;;;0.30;0.30;;;;;;;27.96;43.92;98574.75;5169561;27;20559;-83
2021/06/30 09:16:10;;;;;;;0.30;0.30;;;;;;;27.48;44.52;98569.56;5202480;27;20545;-84
2021/06/30 09:18:52;;;;;;;0.23;0.23;;;;;;;26.79;44.76;98522.91;5098654;28;20567;-85
2021/06/30 09:21:36;;;;;;;0.30;0.30;;;;;;;27.15;45.42;98552.44;5120459;27;20568;-86
2021/06/30 09:24:19;;;;;;;0.60;0.60;;;;;;;27.13;45.72;98565.41;5107209;28;20556;-89
2021/06/30 09:27:01;;;;;;;0.20;0.20;;;;;;;27.88;42.94;98553.19;5169198;27;21452;-82
2021/06/30 09:29:45;;;;;;;0.47;0.30;;;;;;;28.75;41.54;98587.22;5148541;27;20557;-86
2021/06/30 09:32:28;;;;;;;0.30;0.30;;;;;;;29.75;38.55;98599.06;5082992;28;20537;-84
2021/06/30 09:35:21;;;;;;;0.20;0.20;;;;;;;31.64;35.54;98617.88;5107150;28;20550;-86
2021/06/30 09:38:32;;;;;;;0.40;0.40;;;;;;;33.92;31.13;98643.59;5106344;28;20564;-82
2021/06/30 09:41:30;;;;;;;0.30;0.30;;;;;;;36.06;28.79;98653.22;5106952;28;20598;-85
2021/06/30 09:44:14;;;;;;;0.30;0.30;;;;;;;36.97;26.74;98643.47;5107326;28;21343;-82
2021/06/30 09:46:58;;;;;;;0.20;0.20;;;;;;;37.71;26.07;98642.25;5106903;28;20573;-87
2021/06/30 09:49:44;;;;;;;0.37;0.37;;;;;;;38.23;24.77;98649.38;5106892;28;20567;-85
2021/06/30 09:52:27;;;;;;;0.30;0.30;;;;;;;37.44;25.39;98641.66;5107135;28;20556;-85
2021/06/30 09:55:29;;;;;;;0.40;0.40;;;;;;;35.82;28.04;98631.56;5168851;27;20555;-79
2021/06/30 09:58:31;;;;;;;0.40;0.40;;;;;;;36.39;26.64;98652.88;5106322;28;21047;-85
2021/06/30 10:01:19;;;;;;;0.30;0.30;;;;;;;37.17;25.76;98653.78;5147845;27;21055;-85
2021/06/30 10:04:02;;;;;;;0.20;0.20;;;;;;;35.76;27.52;98642.78;5169511;27;20552;-85
2021/06/30 10:06:44;;;;;;;0.20;0.20;;;;;;;34.34;29.08;98636.56;5107781;28;20551;-84
2021/06/30 10:09:27;;;;;;;0.30;0.20;;;;;;;32.92;29.90;98628.66;5107591;28;20567;-85
2021/06/30 10:12:14;;;;;;;0.30;0.30;;;;;;;31.42;32.00;98612.94;5148347;27;21060;-89
2021/06/30 10:14:58;;;;;;;0.23;0.23;;;;;;;30.72;34.18;98603.66;5107655;28;20560;-80
2021/06/30 10:17:42;;;;;;;1.10;1.00;;;;;;;30.61;34.89;98604.44;5106675;28;20564;-81
2021/06/30 10:20:25;;;;;;;0.30;0.30;;;;;;;31.30;33.48;98609.34;5107177;28;20553;-81
2021/06/30 10:23:07;;;;;;;0.20;0.20;;;;;;;31.57;33.57;98612.47;5107693;28;20564;-80
2021/06/30 10:25:51;;;;;;;0.37;0.37;;;;;;;31.84;33.77;98614.78;5106057;28;20567;-81
2021/06/30 10:28:34;;;;;;;0.23;0.23;;;;;;;31.74;34.05;98610.75;5106630;28;20561;-81
2021/06/30 10:31:17;;;;;;;0.20;0.20;;;;;;;31.25;33.53;98567.34;5106590;28;20578;-82
2021/06/30 10:34:02;;;;;;;0.30;0.30;;;;;;;31.15;34.50;98594.44;5107739;28;20567;-81
2021/06/30 10:36:51;;;;;;;0.30;0.30;;;;;;;31.56;34.57;98608.06;5107341;28;20548;-85
2021/06/30 10:39:46;;;;;;;0.20;0.20;;;;;;;31.57;34.13;98600.69;5149117;27;20572;-79
2021/06/30 10:42:33;;;;;;;0.77;0.67;;;;;;;30.82;34.66;98608.56;5106067;28;20553;-79
2021/06/30 10:45:22;;;;;;;0.20;0.20;;;;;;;30.88;34.73;98605.75;5127603;27;20613;-81
2021/06/30 10:48:07;;;;;;;0.47;0.30;;;;;;;31.04;34.43;98605.06;5106536;28;20580;-79
2021/06/30 10:50:56;;;;;;;0.20;0.20;;;;;;;30.60;35.57;98600.88;5106216;28;20552;-77
2021/06/30 10:53:39;;;;;;;0.30;0.30;;;;;;;29.89;36.03;98597.88;5148611;27;20557;-79
2021/06/30 10:56:32;;;;;;;0.20;0.20;;;;;;;29.09;37.64;98594.16;5105876;28;20568;-78
2021/06/30 10:59:15;;;;;;;0.10;0.10;;;;;;;28.63;38.74;98588.97;5085720;28;21062;-78
2021/06/30 11:02:24;;;;;;;0.10;0.10;;;;;;;28.62;39.63;98582.66;5095448;28;21009;-79
2021/06/30 11:05:35;;;;;;;0.20;0.20;;;;;;;28.43;38.98;98583.63;5104828;28;21067;-78
2021/06/30 11:08:53;;;;;;;0.20;0.20;;;;;;;28.35;38.49;98583.84;5135533;27;20559;-79
2021/06/30 11:12:03;;;;;;;0.10;0.10;;;;;;;28.11;38.24;98593.53;5148119;27;20561;-80
2021/06/30 11:14:46;;;;;;;0.20;0.20;;;;;;;27.88;38.47;98591.31;5106176;28;21023;-78
2021/06/30 11:17:38;;;;;;;0.20;0.20;;;;;;;27.73;39.66;98580.66;5105996;28;21080;-82
2021/06/30 11:20:44;;;;;;;0.20;0.20;;;;;;;27.31;39.47;98560.19;5107855;28;20563;-83
2021/06/30 11:23:29;;;;;;;0.20;0.20;;;;;;;27.09;39.73;98575.84;5155279;27;20548;-84
2021/06/30 11:26:49;;;;;;;0.13;0.13;;;;;;;26.89;39.72;98593.16;5087005;28;20581;-90
2021/06/30 11:29:51;;;;;;;0.10;0.10;;;;;;;26.67;40.26;98582.47;5158448;27;20610;-87
2021/06/30 11:32:46;;;;;;;0.10;0.10;;;;;;;26.70;41.04;98582.06;5107793;28;20554;-82
2021/06/30 11:35:33;;;;;;;0.20;0.20;;;;;;;26.91;40.91;98566.59;5108211;27;20564;-82
2021/06/30 11:38:26;;;;;;;0.30;0.30;;;;;;;27.49;39.11;98567.69;5133213;27;20548;-82
2021/06/30 11:41:11;;;;;;;0.30;0.30;;;;;;;28.46;38.66;98583.16;5118991;27;20558;-81
2021/06/30 11:43:55;;;;;;;0.33;0.20;;;;;;;29.08;38.09;98593.31;5147518;27;20569;-84
2021/06/30 11:46:39;;;;;;;0.20;0.20;;;;;;;29.31;37.68;98599.00;5118436;27;20562;-84
2021/06/30 11:49:22;;;;;;;0.20;0.20;;;;;;;29.13;37.63;98601.69;5106606;28;20574;-82
2021/06/30 11:52:06;;;;;;;0.30;0.30;;;;;;;28.67;37.33;98579.31;5168738;27;21084;-82
2021/06/30 11:54:55;;;;;;;0.10;0.10;;;;;;;28.72;37.22;98544.03;5114349;27;21067;-84
2021/06/30 11:57:52;;;;;;;0.17;0.17;;;;;;;28.98;37.60;98586.69;5142854;27;20657;-81
2021/06/30 12:00:42;;;;;;;0.20;0.20;;;;;;;29.41;37.20;98571.28;5107259;28;20574;-82
2021/06/30 12:03:24;;;;;;;0.20;0.20;;;;;;;30.17;37.42;98562.72;5168883;27;20567;-83
2021/06/30 12:06:26;;;;;;;0.30;0.30;;;;;;;29.91;36.05;98571.19;5119181;27;21317;-82
2021/06/30 12:09:17;;;;;;;0.30;0.20;;;;;;;29.93;36.04;98563.59;5164157;27;20516;-82
2021/06/30 12:12:05;;;;;;;0.20;0.20;;;;;;;29.54;36.53;98576.63;5107158;28;20556;-83
2021/06/30 12:14:50;;;;;;;0.20;0.20;;;;;;;29.20;36.96;98552.50;5128640;27;20551;-84
2021/06/30 12:17:34;;;;;;;0.20;0.20;;;;;;;29.80;37.17;98558.28;5169016;27;20554;-80
2021/06/30 12:20:19;;;;;;;0.20;0.20;;;;;;;29.76;37.20;98568.84;5169064;27;20551;-84
2021/06/30 12:23:06;;;;;;;0.30;0.30;;;;;;;29.59;36.66;98557.66;5169016;27;20563;-83
2021/06/30 12:25:49;;;;;;;0.20;0.20;;;;;;;29.88;36.65;98561.56;5106957;28;20910;-84
2021/06/30 12:28:31;;;;;;;0.17;0.17;;;;;;;30.24;36.00;98573.56;5107137;28;20560;-83
2021/06/30 12:31:15;;;;;;;0.20;0.20;;;;;;;30.86;35.86;98552.34;5147468;27;21055;-83
2021/06/30 12:34:00;;;;;;;0.20;0.20;;;;;;;32.42;33.29;98563.47;5119538;27;20550;-82
2021/06/30 12:36:49;;;;;;;0.27;0.27;;;;;;;32.97;31.44;98576.63;5169755;27;20555;-84
2021/06/30 12:39:34;;;;;;;0.20;0.20;;;;;;;33.27;30.70;98587.31;5108138;28;20556;-89
2021/06/30 12:42:17;;;;;;;0.20;0.20;;;;;;;34.01;30.38;98568.72;5170332;27;20551;-88
2021/06/30 12:45:03;;;;;;;0.20;0.20;;;;;;;35.81;28.53;98605.09;5107531;28;20560;-86
2021/06/30 12:47:57;;;;;;;0.30;0.30;;;;;;;34.49;27.94;98581.75;5107951;28;20563;-85
2021/06/30 12:50:42;;;;;;;0.30;0.30;;;;;;;33.11;29.47;98580.72;5120280;27;20530;-82
2021/06/30 12:53:28;;;;;;;1.50;0.20;;;;;;;32.41;31.64;98556.31;5128077;27;20589;-82
2021/06/30 12:56:13;;;;;;;0.20;0.20;;;;;;;33.21;30.06;98571.81;5107387;28;20568;-83